Time;durP1;ratioP1;P1;durP2;ratioP2;P2;SDS_P1;SDS_P2;PMS_P1;PMS_P2;Temp;Humidity;BMP_temperature;BMP_pressure;BME280_temperature;BME280_humidity;BME280_pressure;Samples;Min_cycle;Max_cycle;Signal;HPM_P1;HPM_P2
2024/01/31 00:00:22;;;;;;;14.73;9.43;;;;;;;;;;5057795;28;20048;-83
2024/01/31 00:02:48;;;;;;;13.73;8.45;;;;;;;;;;5045450;28;20085;-83
2024/01/31 00:05:15;;;;;;;12.57;8.35;;;;;;;;;;5054507;28;20558;-84
2024/01/31 00:07:43;;;;;;;14.35;9.13;;;;;;;;;;5047724;28;20106;-83
2024/01/31 00:10:10;;;;;;;15.48;9.80;;;;;;;;;;5044651;28;20068;-83
2024/01/31 00:12:37;;;;;;;14.05;9.00;;;;;;;;;;5042901;28;20049;-83
2024/01/31 00:15:03;;;;;;;15.80;9.50;;;;;;;;;;5043708;28;20083;-84
2024/01/31 00:17:30;;;;;;;16.58;8.80;;;;;;;;;;5042576;28;20155;-84
2024/01/31 00:19:57;;;;;;;17.27;9.93;;;;;;;;;;5042897;28;20112;-84
2024/01/31 00:22:23;;;;;;;17.27;9.23;;;;;;;;;;5046420;28;20055;-84
2024/01/31 00:24:50;;;;;;;17.10;9.00;;;;;;;;;;5058728;28;20045;-84
2024/01/31 00:27:16;;;;;;;16.27;9.27;;;;;;;;;;5060596;28;20136;-85
2024/01/31 00:29:43;;;;;;;14.95;8.70;;;;;;;;;;5056484;28;20498;-83
2024/01/31 00:32:10;;;;;;;12.32;9.05;;;;;;;;;;5056986;28;20078;-83
2024/01/31 00:34:36;;;;;;;15.65;9.15;;;;;;;;;;5040436;28;20132;-83
2024/01/31 00:37:03;;;;;;;14.18;9.32;;;;;;;;;;5045487;28;20067;-83
2024/01/31 00:39:32;;;;;;;13.15;8.63;;;;;;;;;;5046276;28;20410;-83
2024/01/31 00:41:59;;;;;;;14.88;9.85;;;;;;;;;;5059061;28;20049;-82
2024/01/31 00:44:26;;;;;;;19.35;10.48;;;;;;;;;;5044217;28;20534;-83
2024/01/31 00:46:53;;;;;;;16.58;10.38;;;;;;;;;;5060839;28;20056;-84
2024/01/31 00:49:20;;;;;;;15.20;9.23;;;;;;;;;;5062334;28;20059;-83
2024/01/31 00:51:51;;;;;;;15.70;9.40;;;;;;;;;;5056234;28;20084;-83
2024/01/31 00:54:18;;;;;;;16.25;9.40;;;;;;;;;;5039119;28;20080;-85
2024/01/31 00:56:45;;;;;;;15.75;9.50;;;;;;;;;;5040610;28;20115;-84
2024/01/31 00:59:11;;;;;;;15.43;9.68;;;;;;;;;;5038561;28;20061;-84
2024/01/31 01:01:38;;;;;;;22.17;10.50;;;;;;;;;;5042940;28;20040;-83
2024/01/31 01:04:06;;;;;;;17.83;9.55;;;;;;;;;;5041774;28;20057;-83
2024/01/31 01:06:33;;;;;;;13.52;9.77;;;;;;;;;;5041715;28;20442;-83
2024/01/31 01:09:00;;;;;;;17.05;9.13;;;;;;;;;;5044624;28;20049;-82
2024/01/31 01:11:28;;;;;;;18.38;9.20;;;;;;;;;;5041230;28;20538;-83
2024/01/31 01:13:55;;;;;;;15.48;8.98;;;;;;;;;;5040997;28;20086;-83
2024/01/31 01:16:21;;;;;;;14.77;8.90;;;;;;;;;;5056655;28;20184;-83
2024/01/31 01:18:48;;;;;;;14.48;8.80;;;;;;;;;;5052513;28;20045;-85
2024/01/31 01:21:15;;;;;;;15.82;9.77;;;;;;;;;;5044822;28;20088;-84
2024/01/31 01:23:41;;;;;;;14.88;9.38;;;;;;;;;;5043808;28;20080;-84
2024/01/31 01:26:08;;;;;;;17.00;9.70;;;;;;;;;;5052387;28;20087;-84
2024/01/31 01:28:35;;;;;;;15.63;9.48;;;;;;;;;;5058534;28;20468;-84
2024/01/31 01:31:01;;;;;;;17.35;9.80;;;;;;;;;;5058121;28;20056;-84
2024/01/31 01:33:28;;;;;;;15.05;9.50;;;;;;;;;;5059536;28;20091;-84
2024/01/31 01:35:55;;;;;;;16.83;10.10;;;;;;;;;;5057059;28;20056;-84
2024/01/31 01:38:21;;;;;;;18.27;11.00;;;;;;;;;;5059074;28;20423;-83
2024/01/31 01:40:48;;;;;;;17.08;10.93;;;;;;;;;;5055647;28;20128;-83
2024/01/31 01:43:16;;;;;;;15.18;10.02;;;;;;;;;;5042093;28;20053;-84
2024/01/31 01:45:43;;;;;;;23.55;10.70;;;;;;;;;;5042205;28;20052;-83
2024/01/31 01:48:11;;;;;;;16.50;10.32;;;;;;;;;;5037290;28;20128;-85
2024/01/31 01:50:37;;;;;;;19.65;11.68;;;;;;;;;;5053531;28;20069;-83
2024/01/31 01:53:04;;;;;;;18.42;11.05;;;;;;;;;;5041235;28;20274;-83
2024/01/31 01:55:31;;;;;;;20.23;11.35;;;;;;;;;;5042020;28;20601;-83
2024/01/31 01:57:57;;;;;;;18.80;10.10;;;;;;;;;;5031225;28;20053;-83
2024/01/31 02:00:25;;;;;;;21.75;11.82;;;;;;;;;;5042547;28;20491;-84
2024/01/31 02:02:52;;;;;;;19.60;11.70;;;;;;;;;;5041182;28;20076;-84
2024/01/31 02:05:18;;;;;;;18.30;10.45;;;;;;;;;;5052180;28;20504;-83
2024/01/31 02:07:45;;;;;;;18.73;10.60;;;;;;;;;;5041281;28;20052;-83
2024/01/31 02:10:12;;;;;;;16.33;9.98;;;;;;;;;;5059105;28;20057;-83
2024/01/31 02:12:39;;;;;;;21.80;11.00;;;;;;;;;;5040362;28;20053;-83
2024/01/31 02:15:05;;;;;;;15.82;9.93;;;;;;;;;;5065014;28;20084;-84
2024/01/31 02:17:33;;;;;;;14.52;9.82;;;;;;;;;;5066249;28;20032;-83
2024/01/31 02:20:00;;;;;;;14.05;9.45;;;;;;;;;;5063062;28;20053;-84
2024/01/31 02:22:27;;;;;;;17.20;10.07;;;;;;;;;;5057370;28;20052;-84
2024/01/31 02:24:53;;;;;;;24.15;11.00;;;;;;;;;;5048975;28;20054;-84
2024/01/31 02:27:20;;;;;;;20.52;11.35;;;;;;;;;;5042664;28;20084;-83
2024/01/31 02:29:47;;;;;;;18.42;11.10;;;;;;;;;;5035436;28;20064;-82
2024/01/31 02:32:13;;;;;;;17.98;10.13;;;;;;;;;;5059955;28;20143;-85
2024/01/31 02:34:40;;;;;;;18.70;10.57;;;;;;;;;;5057123;28;20056;-83
2024/01/31 02:37:07;;;;;;;17.92;10.88;;;;;;;;;;5053916;28;20100;-84
2024/01/31 02:39:39;;;;;;;17.83;10.45;;;;;;;;;;5057866;28;20059;-84
2024/01/31 02:42:06;;;;;;;19.10;10.73;;;;;;;;;;5035786;28;20041;-84
2024/01/31 02:44:33;;;;;;;18.00;10.63;;;;;;;;;;5041920;28;20075;-84
2024/01/31 02:47:00;;;;;;;19.65;9.85;;;;;;;;;;5037691;28;20056;-83
2024/01/31 02:49:26;;;;;;;15.73;10.70;;;;;;;;;;5058372;28;20072;-83
2024/01/31 02:51:53;;;;;;;18.98;10.93;;;;;;;;;;5038845;28;20083;-83
2024/01/31 02:54:20;;;;;;;16.88;9.52;;;;;;;;;;5058406;28;20053;-84
2024/01/31 02:56:46;;;;;;;15.38;9.82;;;;;;;;;;5053734;28;20084;-83
2024/01/31 02:59:13;;;;;;;13.88;8.82;;;;;;;;;;5039470;28;20053;-85
2024/01/31 03:01:43;;;;;;;15.10;9.95;;;;;;;;;;5060473;28;20075;-84
2024/01/31 03:04:10;;;;;;;19.08;10.25;;;;;;;;;;5062049;28;20060;-84
2024/01/31 03:06:37;;;;;;;14.45;10.57;;;;;;;;;;5056407;28;20053;-83
2024/01/31 03:09:05;;;;;;;17.25;9.52;;;;;;;;;;5047075;28;20482;-81
2024/01/31 03:11:31;;;;;;;14.80;9.55;;;;;;;;;;5068534;28;20040;-84
2024/01/31 03:13:58;;;;;;;15.30;9.05;;;;;;;;;;5093292;28;20043;-84
2024/01/31 03:16:25;;;;;;;13.95;9.25;;;;;;;;;;5082597;28;20100;-84
2024/01/31 03:18:53;;;;;;;14.70;9.05;;;;;;;;;;5066828;28;20088;-85
2024/01/31 03:21:20;;;;;;;15.50;9.13;;;;;;;;;;5068852;28;20195;-86
2024/01/31 03:23:47;;;;;;;13.88;8.55;;;;;;;;;;5057333;28;20045;-86
2024/01/31 03:26:13;;;;;;;17.05;8.85;;;;;;;;;;5073664;28;20059;-85
2024/01/31 03:28:40;;;;;;;17.23;9.25;;;;;;;;;;5054311;28;20057;-86
2024/01/31 03:31:06;;;;;;;15.02;9.10;;;;;;;;;;5052775;28;20037;-86
2024/01/31 03:33:33;;;;;;;14.40;9.07;;;;;;;;;;5060088;28;20071;-86
2024/01/31 03:36:00;;;;;;;14.63;9.02;;;;;;;;;;5034214;28;20052;-82
2024/01/31 03:38:27;;;;;;;16.25;8.13;;;;;;;;;;5048350;28;20053;-83
2024/01/31 03:40:54;;;;;;;12.80;8.20;;;;;;;;;;5049760;28;20052;-82
2024/01/31 03:43:20;;;;;;;12.85;8.48;;;;;;;;;;5038970;28;20143;-85
2024/01/31 03:45:47;;;;;;;11.52;7.95;;;;;;;;;;5050551;28;20152;-83
2024/01/31 03:48:14;;;;;;;12.45;8.18;;;;;;;;;;5042496;28;20077;-84
2024/01/31 03:50:41;;;;;;;12.07;8.25;;;;;;;;;;5042996;28;20044;-83
2024/01/31 03:53:07;;;;;;;13.38;8.20;;;;;;;;;;5051244;28;20081;-83
2024/01/31 03:55:34;;;;;;;13.57;8.30;;;;;;;;;;5052203;28;20087;-84
2024/01/31 03:58:00;;;;;;;12.73;8.43;;;;;;;;;;5051190;28;20126;-84
2024/01/31 04:00:27;;;;;;;11.63;8.07;;;;;;;;;;5050258;28;20091;-83
2024/01/31 04:02:54;;;;;;;12.30;7.25;;;;;;;;;;5029592;28;20610;-83
2024/01/31 04:05:20;;;;;;;10.57;7.60;;;;;;;;;;5032210;28;20077;-83
2024/01/31 04:07:47;;;;;;;12.93;8.45;;;;;;;;;;5031113;28;20054;-84
2024/01/31 04:10:14;;;;;;;14.20;7.68;;;;;;;;;;5048431;28;20092;-84
2024/01/31 04:12:41;;;;;;;10.25;7.28;;;;;;;;;;5048228;28;20059;-84
2024/01/31 04:15:08;;;;;;;12.52;8.32;;;;;;;;;;5039652;28;20156;-83
2024/01/31 04:17:34;;;;;;;13.88;7.57;;;;;;;;;;5038653;28;20092;-83
2024/01/31 04:20:01;;;;;;;12.73;8.23;;;;;;;;;;5051437;28;20216;-83
2024/01/31 04:22:28;;;;;;;12.40;7.68;;;;;;;;;;5045092;28;20087;-84
2024/01/31 04:24:55;;;;;;;12.02;7.97;;;;;;;;;;5058791;28;20055;-84
2024/01/31 04:27:22;;;;;;;15.30;8.00;;;;;;;;;;5047356;28;20099;-84
2024/01/31 04:29:48;;;;;;;13.00;7.53;;;;;;;;;;5061431;28;20060;-83
2024/01/31 04:32:15;;;;;;;10.32;7.15;;;;;;;;;;5078412;28;20072;-86
2024/01/31 04:34:41;;;;;;;13.27;7.82;;;;;;;;;;5069214;28;20091;-87
2024/01/31 04:37:08;;;;;;;15.13;8.82;;;;;;;;;;5060681;28;20521;-84
2024/01/31 04:39:35;;;;;;;12.65;7.72;;;;;;;;;;5055728;28;20059;-85
2024/01/31 04:42:02;;;;;;;11.73;7.38;;;;;;;;;;5055531;28;20085;-86
2024/01/31 04:44:28;;;;;;;8.77;6.47;;;;;;;;;;5037846;28;20065;-83
2024/01/31 04:46:55;;;;;;;13.25;7.28;;;;;;;;;;5058857;28;20072;-83
2024/01/31 04:49:21;;;;;;;12.25;7.93;;;;;;;;;;5075408;28;20148;-84
2024/01/31 04:51:48;;;;;;;11.50;7.60;;;;;;;;;;5047244;28;20069;-84
2024/01/31 04:54:16;;;;;;;12.40;7.70;;;;;;;;;;5076406;28;20044;-84
2024/01/31 04:56:43;;;;;;;16.02;7.60;;;;;;;;;;5078517;28;20052;-83
2024/01/31 04:59:10;;;;;;;10.00;7.07;;;;;;;;;;5070635;28;20144;-84
2024/01/31 05:01:37;;;;;;;12.35;7.75;;;;;;;;;;5069727;28;20080;-85
2024/01/31 05:04:03;;;;;;;11.82;8.10;;;;;;;;;;5044763;28;20072;-84
2024/01/31 05:06:30;;;;;;;11.88;7.53;;;;;;;;;;5052849;28;20048;-84
2024/01/31 05:08:57;;;;;;;15.77;7.53;;;;;;;;;;5070466;28;20049;-85
2024/01/31 05:11:23;;;;;;;13.65;8.05;;;;;;;;;;5071530;28;20072;-85
2024/01/31 05:13:50;;;;;;;14.20;8.05;;;;;;;;;;5069025;28;20053;-85
2024/01/31 05:16:17;;;;;;;11.35;7.35;;;;;;;;;;5055505;28;20471;-85
2024/01/31 05:18:44;;;;;;;15.77;8.80;;;;;;;;;;5062718;28;20072;-85
2024/01/31 05:21:11;;;;;;;13.32;8.48;;;;;;;;;;5056671;28;20594;-87
2024/01/31 05:23:38;;;;;;;11.00;7.88;;;;;;;;;;5071720;28;20048;-87
2024/01/31 05:26:08;;;;;;;15.05;8.27;;;;;;;;;;5055435;28;20475;-87
2024/01/31 05:28:39;;;;;;;13.85;8.70;;;;;;;;;;5071161;28;20143;-87
2024/01/31 05:31:05;;;;;;;12.57;9.10;;;;;;;;;;5050291;28;20052;-85
2024/01/31 05:33:35;;;;;;;11.75;8.70;;;;;;;;;;5040626;28;20053;-83
2024/01/31 05:36:02;;;;;;;15.90;9.95;;;;;;;;;;5051638;28;20053;-85
2024/01/31 05:38:29;;;;;;;15.05;9.95;;;;;;;;;;5054689;28;20413;-85
2024/01/31 05:40:56;;;;;;;15.32;9.38;;;;;;;;;;5049223;28;20140;-84
2024/01/31 05:43:25;;;;;;;16.15;8.98;;;;;;;;;;5055991;28;20076;-83
2024/01/31 05:45:52;;;;;;;12.57;8.40;;;;;;;;;;5053784;28;20053;-84
2024/01/31 05:48:19;;;;;;;13.18;8.20;;;;;;;;;;5053443;28;20059;-83
2024/01/31 05:50:46;;;;;;;13.02;8.00;;;;;;;;;;5060209;28;20055;-84
2024/01/31 05:53:13;;;;;;;12.68;8.35;;;;;;;;;;5055526;28;20460;-82
2024/01/31 05:55:39;;;;;;;15.90;8.75;;;;;;;;;;5053974;28;20029;-83
2024/01/31 05:58:06;;;;;;;12.05;8.18;;;;;;;;;;5083614;28;20048;-83
2024/01/31 06:00:33;;;;;;;13.52;8.43;;;;;;;;;;5043805;28;20060;-83
2024/01/31 06:03:00;;;;;;;15.52;8.65;;;;;;;;;;5046438;28;20056;-83
2024/01/31 06:05:27;;;;;;;15.52;9.50;;;;;;;;;;5065612;28;20065;-83
2024/01/31 06:07:54;;;;;;;13.43;9.40;;;;;;;;;;5038205;28;20544;-83
2024/01/31 06:10:21;;;;;;;17.80;9.23;;;;;;;;;;5033430;28;20153;-85
2024/01/31 06:12:48;;;;;;;16.58;9.75;;;;;;;;;;5052712;28;20076;-84
2024/01/31 06:15:15;;;;;;;13.00;9.63;;;;;;;;;;5052118;28;20098;-84
2024/01/31 06:17:41;;;;;;;18.75;10.80;;;;;;;;;;5051098;28;20053;-84
2024/01/31 06:20:09;;;;;;;14.57;9.93;;;;;;;;;;5051629;28;20059;-83
2024/01/31 06:22:36;;;;;;;16.80;10.48;;;;;;;;;;5035457;28;20045;-84
2024/01/31 06:25:03;;;;;;;11.88;8.93;;;;;;;;;;5053160;28;20057;-83
2024/01/31 06:27:30;;;;;;;13.30;9.35;;;;;;;;;;5050208;28;20448;-83
2024/01/31 06:29:56;;;;;;;15.70;9.20;;;;;;;;;;5038996;28;20113;-83
2024/01/31 06:32:30;;;;;;;15.38;9.63;;;;;;;;;;5033651;28;20565;-84
2024/01/31 06:34:57;;;;;;;16.40;9.45;;;;;;;;;;5037791;28;20057;-84
2024/01/31 06:37:24;;;;;;;14.32;9.50;;;;;;;;;;5036160;28;20119;-85
2024/01/31 06:39:51;;;;;;;14.15;9.88;;;;;;;;;;5035596;28;20154;-85
2024/01/31 06:42:18;;;;;;;11.98;9.15;;;;;;;;;;5038192;28;20115;-84
2024/01/31 06:44:44;;;;;;;12.63;9.50;;;;;;;;;;5051165;28;20076;-82
2024/01/31 06:47:11;;;;;;;14.45;9.90;;;;;;;;;;5051192;28;20072;-82
2024/01/31 06:49:38;;;;;;;14.48;9.77;;;;;;;;;;5061937;28;20055;-79
2024/01/31 06:52:10;;;;;;;15.90;8.85;;;;;;;;;;5053564;28;20107;-78
2024/01/31 06:54:37;;;;;;;19.30;9.80;;;;;;;;;;5037701;28;20076;-79
2024/01/31 06:57:03;;;;;;;16.50;9.77;;;;;;;;;;5035796;28;20711;-79
2024/01/31 06:59:30;;;;;;;15.13;10.35;;;;;;;;;;5050977;28;20510;-79
2024/01/31 07:01:56;;;;;;;12.95;9.15;;;;;;;;;;5032783;28;20053;-78
2024/01/31 07:04:23;;;;;;;14.65;10.50;;;;;;;;;;5024056;28;20044;-78
2024/01/31 07:06:51;;;;;;;15.80;10.10;;;;;;;;;;5032893;28;20053;-77
2024/01/31 07:09:18;;;;;;;16.60;9.52;;;;;;;;;;5049776;28;20060;-77
2024/01/31 07:11:45;;;;;;;19.02;10.80;;;;;;;;;;5033151;28;20136;-78
2024/01/31 07:14:11;;;;;;;17.05;10.32;;;;;;;;;;5049662;28;20084;-78
2024/01/31 07:16:38;;;;;;;16.38;9.85;;;;;;;;;;5049251;28;20171;-77
2024/01/31 07:19:05;;;;;;;15.45;9.63;;;;;;;;;;5032775;28;20107;-77
2024/01/31 07:21:32;;;;;;;13.63;9.68;;;;;;;;;;5033087;28;20087;-78
2024/01/31 07:23:58;;;;;;;16.65;9.85;;;;;;;;;;5048882;28;20053;-78
2024/01/31 07:26:36;;;;;;;15.25;9.43;;;;;;;;;;5050905;28;20527;-76
2024/01/31 07:29:03;;;;;;;18.77;10.48;;;;;;;;;;5054537;28;20132;-77
2024/01/31 07:31:30;;;;;;;16.75;10.40;;;;;;;;;;5065936;28;20556;-76
2024/01/31 07:33:57;;;;;;;13.20;9.68;;;;;;;;;;5066994;28;20048;-76
2024/01/31 07:36:23;;;;;;;15.45;9.52;;;;;;;;;;5068234;28;20058;-76
2024/01/31 07:38:50;;;;;;;16.92;11.13;;;;;;;;;;5049070;28;20052;-76
2024/01/31 07:41:17;;;;;;;14.02;9.07;;;;;;;;;;5043167;28;20076;-78
2024/01/31 07:43:43;;;;;;;14.63;9.75;;;;;;;;;;5061484;28;20067;-77
2024/01/31 07:46:10;;;;;;;14.40;9.05;;;;;;;;;;5062788;28;20048;-77
2024/01/31 07:48:37;;;;;;;14.15;9.05;;;;;;;;;;5052567;28;20147;-78
2024/01/31 07:51:05;;;;;;;14.30;8.90;;;;;;;;;;5036757;28;20056;-77
2024/01/31 07:53:32;;;;;;;16.38;9.38;;;;;;;;;;5046648;28;20052;-77
2024/01/31 07:55:58;;;;;;;14.30;9.10;;;;;;;;;;5044218;28;20064;-77
2024/01/31 07:58:30;;;;;;;13.18;9.63;;;;;;;;;;5062771;28;20044;-77
2024/01/31 08:00:57;;;;;;;14.43;9.25;;;;;;;;;;5037661;28;20061;-78
2024/01/31 08:03:23;;;;;;;16.67;10.82;;;;;;;;;;5047602;28;20052;-82
2024/01/31 08:05:50;;;;;;;16.15;9.43;;;;;;;;;;5050027;28;20053;-80
2024/01/31 08:08:17;;;;;;;15.73;9.05;;;;;;;;;;5045007;28;20058;-80
2024/01/31 08:10:44;;;;;;;23.27;9.10;;;;;;;;;;5049573;28;20055;-77
2024/01/31 08:13:11;;;;;;;15.65;9.90;;;;;;;;;;5035739;28;20131;-77
2024/01/31 08:15:38;;;;;;;15.57;9.35;;;;;;;;;;5047470;28;20048;-78
2024/01/31 08:18:05;;;;;;;11.95;9.68;;;;;;;;;;5051193;28;20106;-77
2024/01/31 08:20:32;;;;;;;17.10;10.43;;;;;;;;;;5043335;28;20063;-81
2024/01/31 08:22:59;;;;;;;13.55;8.80;;;;;;;;;;5045233;28;20561;-78
2024/01/31 08:25:26;;;;;;;14.30;9.48;;;;;;;;;;5049263;28;20045;-78
2024/01/31 08:27:53;;;;;;;13.55;9.48;;;;;;;;;;5049757;28;20049;-79
2024/01/31 08:30:21;;;;;;;11.48;8.43;;;;;;;;;;5033432;28;20049;-78
2024/01/31 08:32:48;;;;;;;15.13;9.88;;;;;;;;;;5053271;28;20091;-78
2024/01/31 08:35:14;;;;;;;14.40;9.75;;;;;;;;;;5035158;28;20057;-79
2024/01/31 08:37:41;;;;;;;14.23;10.25;;;;;;;;;;5036547;28;20128;-77
2024/01/31 08:40:10;;;;;;;15.93;9.93;;;;;;;;;;5046670;28;20064;-77
2024/01/31 08:42:39;;;;;;;16.45;10.10;;;;;;;;;;5044735;28;20060;-80
2024/01/31 08:45:06;;;;;;;14.32;9.77;;;;;;;;;;5051540;28;20049;-78
2024/01/31 08:47:33;;;;;;;20.58;12.30;;;;;;;;;;5034578;28;20080;-79
2024/01/31 08:50:00;;;;;;;18.25;10.48;;;;;;;;;;5049115;28;20107;-79
2024/01/31 08:52:27;;;;;;;17.65;10.43;;;;;;;;;;5053073;28;20049;-79
2024/01/31 08:54:53;;;;;;;14.80;10.95;;;;;;;;;;5050737;28;20053;-79
2024/01/31 08:57:20;;;;;;;14.13;9.73;;;;;;;;;;5032251;28;20136;-79
2024/01/31 08:59:47;;;;;;;15.10;10.65;;;;;;;;;;5050134;28;20103;-79
2024/01/31 09:02:13;;;;;;;16.73;10.43;;;;;;;;;;5054800;28;20449;-79
2024/01/31 09:04:40;;;;;;;18.17;10.93;;;;;;;;;;5051319;28;20495;-79
2024/01/31 09:07:07;;;;;;;16.85;11.23;;;;;;;;;;5056494;28;20142;-78
2024/01/31 09:09:38;;;;;;;17.17;11.35;;;;;;;;;;5047433;28;20053;-78
2024/01/31 09:12:05;;;;;;;19.05;10.80;;;;;;;;;;5047780;28;20052;-78
2024/01/31 09:14:35;;;;;;;17.77;11.00;;;;;;;;;;5057630;28;20079;-77
2024/01/31 09:17:02;;;;;;;15.55;10.60;;;;;;;;;;5044660;28;20057;-78
2024/01/31 09:19:28;;;;;;;13.77;10.23;;;;;;;;;;5046985;28;20080;-78
2024/01/31 09:21:55;;;;;;;18.33;11.30;;;;;;;;;;5047798;28;20508;-79
2024/01/31 09:24:22;;;;;;;16.92;10.93;;;;;;;;;;5040479;28;20045;-78
2024/01/31 09:26:48;;;;;;;17.80;11.45;;;;;;;;;;5037758;28;20132;-79
2024/01/31 09:29:15;;;;;;;17.10;11.50;;;;;;;;;;5044609;28;20511;-81
2024/01/31 09:31:42;;;;;;;19.38;11.43;;;;;;;;;;5039275;28;20053;-81
2024/01/31 09:34:09;;;;;;;17.73;11.10;;;;;;;;;;5031036;28;20391;-78
2024/01/31 09:36:36;;;;;;;19.00;12.25;;;;;;;;;;5052058;28;20484;-80
2024/01/31 09:39:03;;;;;;;18.73;11.75;;;;;;;;;;5050467;28;20121;-78
2024/01/31 09:41:30;;;;;;;16.50;11.65;;;;;;;;;;5056401;28;20049;-79
2024/01/31 09:43:57;;;;;;;17.60;11.73;;;;;;;;;;5046045;28;20618;-79
2024/01/31 09:46:24;;;;;;;16.73;11.30;;;;;;;;;;5037787;28;20076;-78
2024/01/31 09:48:50;;;;;;;15.63;11.73;;;;;;;;;;5046544;28;20049;-80
2024/01/31 09:51:17;;;;;;;16.95;12.13;;;;;;;;;;5051699;28;20557;-78
2024/01/31 09:53:44;;;;;;;19.05;11.77;;;;;;;;;;5036638;28;20053;-78
2024/01/31 09:56:11;;;;;;;16.27;11.85;;;;;;;;;;5048918;28;20049;-78
2024/01/31 09:58:38;;;;;;;15.98;12.23;;;;;;;;;;5047412;28;20103;-78
2024/01/31 10:01:05;;;;;;;18.15;12.05;;;;;;;;;;5040398;28;20084;-79
2024/01/31 10:03:42;;;;;;;18.45;11.98;;;;;;;;;;5039465;28;20055;-79
2024/01/31 10:06:09;;;;;;;15.00;10.60;;;;;;;;;;5050093;28;20053;-79
2024/01/31 10:08:38;;;;;;;16.67;11.02;;;;;;;;;;5056724;28;20578;-79
2024/01/31 10:11:05;;;;;;;20.20;11.93;;;;;;;;;;5050603;28;20049;-78
2024/01/31 10:13:32;;;;;;;18.67;10.70;;;;;;;;;;5038554;28;20052;-78
2024/01/31 10:15:59;;;;;;;15.93;10.82;;;;;;;;;;5044599;28;20071;-78
2024/01/31 10:18:28;;;;;;;17.00;11.85;;;;;;;;;;5038103;28;20088;-79
2024/01/31 10:20:56;;;;;;;17.77;11.18;;;;;;;;;;5050779;28;20057;-79
2024/01/31 10:23:23;;;;;;;16.40;11.60;;;;;;;;;;5039542;28;20099;-78
2024/01/31 10:25:51;;;;;;;20.42;12.45;;;;;;;;;;5048601;28;20054;-79
2024/01/31 10:28:20;;;;;;;17.52;11.80;;;;;;;;;;5044393;28;20052;-79
2024/01/31 10:30:50;;;;;;;15.18;11.85;;;;;;;;;;5055884;28;20056;-79
2024/01/31 10:33:16;;;;;;;18.20;11.80;;;;;;;;;;5032418;28;20538;-78
2024/01/31 10:35:45;;;;;;;16.95;11.73;;;;;;;;;;5037565;28;20053;-79
2024/01/31 10:38:32;;;;;;;17.02;11.40;;;;;;;;;;5049072;28;20053;-78
2024/01/31 10:40:59;;;;;;;17.10;11.68;;;;;;;;;;5050692;28;20072;-78
2024/01/31 10:43:26;;;;;;;15.05;11.50;;;;;;;;;;5054197;28;20124;-78
2024/01/31 10:45:53;;;;;;;21.05;12.88;;;;;;;;;;5039281;28;20053;-79
2024/01/31 10:48:19;;;;;;;15.68;11.02;;;;;;;;;;5049227;28;20055;-78
2024/01/31 10:50:46;;;;;;;17.92;12.50;;;;;;;;;;5052068;28;20094;-79
2024/01/31 10:53:13;;;;;;;20.75;11.18;;;;;;;;;;5052579;28;20059;-79
2024/01/31 10:55:40;;;;;;;16.27;11.98;;;;;;;;;;5044734;28;20305;-78
2024/01/31 10:58:06;;;;;;;19.52;12.43;;;;;;;;;;5047644;28;20053;-78
2024/01/31 11:00:33;;;;;;;15.55;11.27;;;;;;;;;;5051245;28;20049;-79
2024/01/31 11:03:00;;;;;;;16.67;10.60;;;;;;;;;;5039016;28;20131;-78
2024/01/31 11:05:28;;;;;;;17.15;11.05;;;;;;;;;;5030590;28;20502;-78
2024/01/31 11:07:55;;;;;;;16.23;11.25;;;;;;;;;;5047516;28;20123;-79
2024/01/31 11:10:22;;;;;;;15.85;11.65;;;;;;;;;;5045887;28;20491;-78
2024/01/31 11:13:02;;;;;;;16.23;11.15;;;;;;;;;;5049213;28;20416;-78
2024/01/31 11:15:29;;;;;;;14.13;10.38;;;;;;;;;;5044101;28;20057;-79
2024/01/31 11:18:15;;;;;;;16.13;9.88;;;;;;;;;;5050690;28;20507;-79
2024/01/31 11:20:46;;;;;;;16.95;10.02;;;;;;;;;;5053059;28;20483;-78
2024/01/31 11:23:17;;;;;;;17.08;11.18;;;;;;;;;;5054918;28;20088;-79
2024/01/31 11:25:44;;;;;;;18.15;11.27;;;;;;;;;;5051157;28;20059;-79
2024/01/31 11:28:11;;;;;;;16.17;10.93;;;;;;;;;;5045143;28;20069;-79
2024/01/31 11:30:41;;;;;;;15.93;10.90;;;;;;;;;;5031957;28;20190;-78
2024/01/31 11:33:08;;;;;;;13.43;9.60;;;;;;;;;;5039634;28;20053;-79
2024/01/31 11:35:35;;;;;;;15.82;10.55;;;;;;;;;;5039206;28;20060;-79
2024/01/31 11:38:02;;;;;;;18.35;9.63;;;;;;;;;;5039777;28;20067;-79
2024/01/31 11:40:28;;;;;;;15.88;9.90;;;;;;;;;;5039790;28;20136;-78
2024/01/31 11:42:56;;;;;;;14.07;10.07;;;;;;;;;;5056607;28;20061;-79
2024/01/31 11:45:25;;;;;;;15.77;9.65;;;;;;;;;;5056193;28;20056;-78
2024/01/31 11:47:55;;;;;;;13.68;9.18;;;;;;;;;;5040129;28;20053;-78
2024/01/31 11:50:22;;;;;;;14.07;9.75;;;;;;;;;;5039726;28;20053;-79
2024/01/31 11:52:49;;;;;;;14.98;9.00;;;;;;;;;;5052463;28;20136;-78
2024/01/31 11:55:19;;;;;;;16.08;9.57;;;;;;;;;;5035007;28;20453;-77
2024/01/31 11:57:46;;;;;;;15.98;9.45;;;;;;;;;;5035642;28;20075;-78
2024/01/31 12:00:13;;;;;;;15.90;9.95;;;;;;;;;;5051594;28;20483;-80
2024/01/31 12:02:40;;;;;;;15.50;10.00;;;;;;;;;;5035966;28;20473;-78
2024/01/31 12:05:07;;;;;;;14.55;9.50;;;;;;;;;;5031741;28;20060;-78
2024/01/31 12:07:33;;;;;;;12.98;9.60;;;;;;;;;;5033637;28;20057;-78
2024/01/31 12:10:00;;;;;;;12.05;8.98;;;;;;;;;;5056897;28;20076;-81
2024/01/31 12:12:27;;;;;;;14.75;10.05;;;;;;;;;;5051502;28;20540;-79
2024/01/31 12:14:53;;;;;;;16.48;10.45;;;;;;;;;;5058715;28;20053;-78
2024/01/31 12:17:21;;;;;;;16.70;10.50;;;;;;;;;;5047017;28;20040;-77
2024/01/31 12:19:48;;;;;;;16.50;10.00;;;;;;;;;;5067270;28;20080;-77
2024/01/31 12:22:15;;;;;;;13.73;9.77;;;;;;;;;;5028153;28;20045;-77
2024/01/31 12:24:42;;;;;;;13.80;8.73;;;;;;;;;;5038396;28;20055;-77
2024/01/31 12:27:10;;;;;;;18.35;10.32;;;;;;;;;;5045488;28;20064;-78
2024/01/31 12:29:36;;;;;;;12.15;9.43;;;;;;;;;;5058319;28;20041;-77
2024/01/31 12:32:06;;;;;;;17.20;11.35;;;;;;;;;;5063098;28;20048;-78
2024/01/31 12:34:32;;;;;;;17.27;11.63;;;;;;;;;;5060990;28;20491;-77
2024/01/31 12:36:59;;;;;;;20.35;11.85;;;;;;;;;;5057918;28;20453;-77
2024/01/31 12:39:26;;;;;;;17.15;10.85;;;;;;;;;;5054891;28;20083;-77
2024/01/31 12:41:54;;;;;;;17.52;11.25;;;;;;;;;;5061598;28;20064;-78
2024/01/31 12:44:21;;;;;;;16.85;10.43;;;;;;;;;;5063617;28;20049;-77
2024/01/31 12:46:48;;;;;;;15.73;10.93;;;;;;;;;;5040939;28;20076;-78
2024/01/31 12:49:15;;;;;;;18.48;11.00;;;;;;;;;;5037319;28;20053;-77
2024/01/31 12:51:41;;;;;;;14.80;10.02;;;;;;;;;;5053939;28;20106;-77
2024/01/31 12:54:08;;;;;;;16.00;11.18;;;;;;;;;;5047318;28;20064;-77
2024/01/31 12:56:38;;;;;;;18.15;11.40;;;;;;;;;;5036895;28;20094;-78
2024/01/31 12:59:04;;;;;;;20.10;10.75;;;;;;;;;;5060037;28;20112;-77
2024/01/31 13:01:31;;;;;;;20.60;11.20;;;;;;;;;;5049009;28;20087;-77
2024/01/31 13:03:58;;;;;;;16.25;11.02;;;;;;;;;;5045017;28;20053;-78
2024/01/31 13:06:25;;;;;;;17.52;10.75;;;;;;;;;;5054919;28;20052;-78
2024/01/31 13:08:52;;;;;;;18.23;11.02;;;;;;;;;;5053886;28;20045;-78
2024/01/31 13:11:20;;;;;;;16.67;11.02;;;;;;;;;;5052540;28;20048;-78
2024/01/31 13:13:49;;;;;;;16.23;11.40;;;;;;;;;;5051110;28;20057;-79
2024/01/31 13:16:16;;;;;;;15.40;10.00;;;;;;;;;;5056999;28;20092;-78
2024/01/31 13:18:43;;;;;;;15.70;11.00;;;;;;;;;;5048798;28;20064;-79
2024/01/31 13:21:10;;;;;;;18.27;10.77;;;;;;;;;;5059127;28;20048;-79
2024/01/31 13:23:39;;;;;;;17.95;10.55;;;;;;;;;;5052387;28;20087;-78
2024/01/31 13:26:06;;;;;;;19.48;10.75;;;;;;;;;;5048275;28;20049;-79
2024/01/31 13:28:33;;;;;;;17.45;9.82;;;;;;;;;;5057591;28;20073;-79
2024/01/31 13:30:59;;;;;;;15.50;10.07;;;;;;;;;;5050755;28;20044;-79
2024/01/31 13:33:26;;;;;;;16.67;10.15;;;;;;;;;;5047214;28;20119;-79
2024/01/31 13:35:53;;;;;;;15.77;10.45;;;;;;;;;;5052399;28;20105;-79
2024/01/31 13:38:21;;;;;;;21.67;11.23;;;;;;;;;;5061102;28;20048;-78
2024/01/31 13:40:48;;;;;;;18.05;10.60;;;;;;;;;;5063150;28;20049;-79
2024/01/31 13:43:15;;;;;;;14.98;10.48;;;;;;;;;;5065952;28;20083;-78
2024/01/31 13:45:41;;;;;;;16.92;9.55;;;;;;;;;;5049840;28;20045;-78
2024/01/31 13:48:08;;;;;;;17.33;10.40;;;;;;;;;;5054861;28;20049;-79
2024/01/31 13:50:37;;;;;;;14.98;9.77;;;;;;;;;;5042155;28;20118;-79
2024/01/31 13:53:04;;;;;;;15.93;9.63;;;;;;;;;;5042361;28;20573;-79
2024/01/31 13:55:33;;;;;;;21.35;10.02;;;;;;;;;;5041920;28;20072;-79
2024/01/31 13:58:00;;;;;;;14.40;8.90;;;;;;;;;;5051177;28;20053;-79
2024/01/31 14:00:27;;;;;;;16.50;9.27;;;;;;;;;;5050942;28;20106;-79
2024/01/31 14:02:53;;;;;;;17.15;10.05;;;;;;;;;;5045894;28;20523;-79
2024/01/31 14:05:20;;;;;;;19.70;10.63;;;;;;;;;;5041877;28;20056;-78
2024/01/31 14:07:47;;;;;;;16.25;9.32;;;;;;;;;;5052826;28;20567;-78
2024/01/31 14:10:13;;;;;;;13.25;9.27;;;;;;;;;;5059424;28;20072;-79
2024/01/31 14:12:40;;;;;;;13.90;9.25;;;;;;;;;;5036508;28;20491;-79
2024/01/31 14:15:07;;;;;;;14.30;9.38;;;;;;;;;;5055105;28;20069;-79
2024/01/31 14:17:34;;;;;;;13.48;9.05;;;;;;;;;;5056419;28;20075;-79
2024/01/31 14:20:00;;;;;;;17.08;11.25;;;;;;;;;;5058957;28;20045;-80
2024/01/31 14:22:27;;;;;;;20.00;9.80;;;;;;;;;;5063755;28;20140;-79